createdAt,value
2018-05-18T00:00:29.357Z,16.07
2018-05-18T00:02:56.027Z,15.13
2018-05-18T00:05:22.663Z,15.57
2018-05-18T00:07:49.311Z,16.03
2018-05-18T00:10:15.963Z,17.43
2018-05-18T00:12:42.614Z,15.10
2018-05-18T00:15:09.328Z,16.10
2018-05-18T00:17:35.992Z,16.53
2018-05-18T00:20:02.674Z,15.37
2018-05-18T00:22:29.304Z,16.60
2018-05-18T00:24:56.017Z,14.70
2018-05-18T00:27:22.646Z,14.53
2018-05-18T00:29:49.389Z,15.60
2018-05-18T00:32:16.043Z,12.87
2018-05-18T00:34:42.685Z,15.30
2018-05-18T00:37:09.348Z,14.70
2018-05-18T00:39:35.998Z,15.20
2018-05-18T00:42:02.645Z,15.13
2018-05-18T00:44:29.338Z,13.50
2018-05-18T00:46:56.004Z,14.00
2018-05-18T00:49:22.684Z,15.10
2018-05-18T00:51:49.359Z,15.10
2018-05-18T00:54:16.017Z,14.50
2018-05-18T00:56:42.678Z,13.80
2018-05-18T00:59:09.328Z,15.47
2018-05-18T01:01:36.001Z,14.13
2018-05-18T01:04:02.642Z,14.03
2018-05-18T01:06:29.277Z,14.30
2018-05-18T01:08:55.941Z,14.47
2018-05-18T01:11:22.580Z,15.20
2018-05-18T01:13:49.287Z,14.33
2018-05-18T01:16:15.948Z,14.27
2018-05-18T01:18:42.618Z,15.00
2018-05-18T01:21:09.293Z,15.57
2018-05-18T01:23:35.981Z,14.60
2018-05-18T01:26:02.807Z,13.70
2018-05-18T01:28:29.526Z,13.37
2018-05-18T01:30:56.186Z,15.23
2018-05-18T01:33:22.841Z,14.50
2018-05-18T01:35:49.471Z,14.40
2018-05-18T01:38:16.263Z,14.70
2018-05-18T01:40:42.907Z,13.83
2018-05-18T01:43:09.598Z,14.97
2018-05-18T01:45:36.325Z,13.40
2018-05-18T01:48:02.977Z,13.83
2018-05-18T01:50:29.636Z,13.10
2018-05-18T01:52:56.627Z,14.53
2018-05-18T01:55:23.269Z,15.50
2018-05-18T01:57:49.940Z,16.00
2018-05-18T02:00:16.634Z,15.40
2018-05-18T02:02:43.304Z,15.23
2018-05-18T02:05:09.973Z,14.80
2018-05-18T02:07:36.661Z,14.97
2018-05-18T02:10:03.323Z,14.93
2018-05-18T02:12:30.010Z,15.50
2018-05-18T02:14:58.691Z,15.70
2018-05-18T02:17:25.350Z,14.53
2018-05-18T02:19:52.002Z,13.37
2018-05-18T02:22:18.659Z,14.23
2018-05-18T02:24:45.380Z,14.33
2018-05-18T02:27:12.023Z,14.73
2018-05-18T02:29:38.678Z,15.10
2018-05-18T02:32:05.307Z,14.77
2018-05-18T02:34:31.939Z,13.37
2018-05-18T02:36:59.273Z,13.77
2018-05-18T02:39:25.915Z,14.20
2018-05-18T02:41:52.535Z,13.67
2018-05-18T02:44:19.209Z,12.97
2018-05-18T02:46:45.865Z,14.47
2018-05-18T02:49:12.510Z,12.50
2018-05-18T02:51:39.178Z,13.90
2018-05-18T02:54:06.685Z,12.53
2018-05-18T02:56:33.374Z,13.00
2018-05-18T02:59:00.060Z,13.10
2018-05-18T03:01:26.757Z,12.27
2018-05-18T03:03:53.401Z,13.37
2018-05-18T03:06:20.072Z,13.60
2018-05-18T03:08:46.733Z,11.80
2018-05-18T03:11:13.379Z,12.97
2018-05-18T03:13:40.031Z,12.73
2018-05-18T03:16:06.692Z,12.27
2018-05-18T03:18:33.361Z,13.13
2018-05-18T03:21:00.096Z,13.23
2018-05-18T03:23:26.745Z,12.67
2018-05-18T03:25:53.393Z,12.80
2018-05-18T03:28:20.028Z,12.57
2018-05-18T03:30:46.797Z,12.17
2018-05-18T03:33:13.349Z,13.13
2018-05-18T03:35:39.990Z,12.53
2018-05-18T03:38:06.623Z,11.23
2018-05-18T03:40:33.274Z,12.23
2018-05-18T03:42:59.931Z,11.97
2018-05-18T03:45:26.610Z,11.57
2018-05-18T03:47:53.332Z,11.80
2018-05-18T03:50:19.967Z,11.90
2018-05-18T03:52:46.637Z,10.43
2018-05-18T03:55:13.281Z,12.13
2018-05-18T03:57:39.926Z,10.33
2018-05-18T04:00:09.368Z,11.03
2018-05-18T04:02:41.663Z,10.67
2018-05-18T04:05:14.206Z,10.73
2018-05-18T04:07:55.849Z,10.47
2018-05-18T04:10:22.517Z,11.07
2018-05-18T04:12:49.111Z,10.57
2018-05-18T04:15:15.891Z,10.57
2018-05-18T04:17:42.527Z,10.83
2018-05-18T04:20:09.152Z,10.00
2018-05-18T04:22:36.256Z,11.03
2018-05-18T04:25:02.934Z,11.13
2018-05-18T04:27:29.638Z,10.40
2018-05-18T04:29:56.327Z,11.50
2018-05-18T04:32:22.967Z,10.90
2018-05-18T04:34:49.660Z,10.13
2018-05-18T04:37:16.338Z,10.07
2018-05-18T04:39:42.981Z,9.63
2018-05-18T04:42:09.718Z,9.80
2018-05-18T04:44:36.378Z,9.60
2018-05-18T04:47:03.101Z,10.20
2018-05-18T04:49:29.829Z,10.23
2018-05-18T04:51:56.491Z,9.50
2018-05-18T04:54:23.143Z,8.70
2018-05-18T04:56:49.800Z,10.67
2018-05-18T04:59:16.457Z,11.03
2018-05-18T05:01:43.129Z,10.20
2018-05-18T05:04:09.841Z,10.00
2018-05-18T05:06:36.450Z,9.97
2018-05-18T05:09:04.096Z,10.30
2018-05-18T05:11:30.805Z,9.73
2018-05-18T05:13:57.442Z,9.73
2018-05-18T05:16:24.115Z,10.53
2018-05-18T05:18:50.791Z,9.93
2018-05-18T05:21:17.473Z,9.57
2018-05-18T05:23:44.251Z,10.73
2018-05-18T05:26:10.865Z,9.50
2018-05-18T05:28:38.313Z,8.83
2018-05-18T05:31:04.982Z,8.93
2018-05-18T05:33:31.612Z,9.60
2018-05-18T05:35:58.849Z,10.33
2018-05-18T05:38:25.521Z,9.67
2018-05-18T05:40:52.193Z,10.30
2018-05-18T05:43:18.918Z,11.27
2018-05-18T05:45:45.594Z,10.60
2018-05-18T05:48:12.330Z,10.50
2018-05-18T05:50:40.498Z,10.20
2018-05-18T05:55:59.206Z,10.40
2018-05-18T05:58:25.993Z,10.00
2018-05-18T06:00:58.464Z,11.50
2018-05-18T06:03:33.327Z,11.47
2018-05-18T06:05:59.987Z,11.90
2018-05-18T06:08:28.216Z,10.90
2018-05-18T06:11:01.842Z,10.30
2018-05-18T06:13:30.216Z,12.50
2018-05-18T06:16:06.764Z,10.57
2018-05-18T06:18:38.679Z,11.20
2018-05-18T06:21:06.385Z,12.53
2018-05-18T06:23:33.068Z,12.40
2018-05-18T06:26:01.147Z,10.53
2018-05-18T06:28:36.543Z,11.53
2018-05-18T06:31:04.141Z,12.20
2018-05-18T06:33:30.853Z,11.83
2018-05-18T06:36:01.160Z,12.37
2018-05-18T06:38:27.896Z,12.40
2018-05-18T06:40:54.681Z,12.80
2018-05-18T06:43:23.082Z,10.93
2018-05-18T06:45:50.575Z,10.93
2018-05-18T06:48:22.014Z,13.33
2018-05-18T06:50:54.612Z,11.10
2018-05-18T06:53:21.533Z,11.53
2018-05-18T06:55:49.100Z,11.93
2018-05-18T06:58:15.813Z,11.20
2018-05-18T07:00:42.510Z,10.60
2018-05-18T07:03:09.258Z,12.50
2018-05-18T07:05:36.964Z,10.60
2018-05-18T07:08:03.666Z,11.00
2018-05-18T07:10:30.358Z,10.73
2018-05-18T07:12:57.033Z,10.70
2018-05-18T07:15:23.687Z,10.70
2018-05-18T07:17:50.355Z,10.17
2018-05-18T07:20:17.030Z,11.23
2018-05-18T07:22:43.682Z,11.20
2018-05-18T07:25:10.484Z,11.07
2018-05-18T07:27:37.156Z,10.03
2018-05-18T07:30:03.823Z,11.30
2018-05-18T07:32:30.637Z,10.43
2018-05-18T07:34:57.300Z,10.53
2018-05-18T07:37:24.427Z,10.40
2018-05-18T07:39:51.307Z,10.87
2018-05-18T07:42:17.955Z,10.20
2018-05-18T07:44:44.611Z,10.43
2018-05-18T07:47:11.334Z,10.93
2018-05-18T07:49:37.978Z,11.70
2018-05-18T07:52:04.693Z,10.87
2018-05-18T07:54:31.360Z,10.67
2018-05-18T07:56:58.060Z,9.60
2018-05-18T07:59:25.638Z,9.77
2018-05-18T08:01:52.318Z,9.37
2018-05-18T08:04:18.978Z,8.80
2018-05-18T08:06:45.645Z,8.90
2018-05-18T08:09:12.285Z,10.60
2018-05-18T08:11:38.924Z,9.30
2018-05-18T08:14:05.592Z,10.27
2018-05-18T08:16:32.290Z,9.00
2018-05-18T08:19:00.106Z,9.30
2018-05-18T08:21:27.247Z,9.50
2018-05-18T08:23:53.926Z,9.27
2018-05-18T08:26:20.744Z,10.90
2018-05-18T08:28:56.080Z,10.53
2018-05-18T08:31:22.754Z,10.20
2018-05-18T08:33:49.409Z,10.90
2018-05-18T08:36:16.161Z,10.13
2018-05-18T08:38:42.822Z,10.03
2018-05-18T08:41:09.469Z,10.17
2018-05-18T08:43:36.145Z,10.87
2018-05-18T08:46:02.776Z,9.83
2018-05-18T08:48:29.458Z,10.23
2018-05-18T08:50:56.269Z,9.30
2018-05-18T08:53:22.921Z,9.70
2018-05-18T08:55:49.605Z,11.17
2018-05-18T08:58:16.240Z,10.70
2018-05-18T09:00:42.909Z,9.67
2018-05-18T09:03:09.595Z,11.27
2018-05-18T09:05:36.300Z,10.67
2018-05-18T09:08:03.128Z,11.23
2018-05-18T09:10:30.041Z,11.93
2018-05-18T09:12:57.945Z,11.07
2018-05-18T09:15:24.742Z,10.20
2018-05-18T09:17:51.404Z,9.40
2018-05-18T09:20:19.329Z,12.80
2018-05-18T09:22:46.055Z,11.00
2018-05-18T09:25:12.719Z,10.83
2018-05-18T09:27:39.374Z,9.43
2018-05-18T09:30:06.067Z,9.97
2018-05-18T09:32:33.165Z,9.13
2018-05-18T09:35:00.741Z,9.63
2018-05-18T09:37:27.437Z,10.43
2018-05-18T09:39:54.371Z,11.07
2018-05-18T09:42:21.428Z,9.10
2018-05-18T09:44:48.192Z,9.93
2018-05-18T09:47:14.859Z,11.73
2018-05-18T09:49:41.624Z,12.43
2018-05-18T09:52:08.610Z,11.33
2018-05-18T09:54:35.426Z,13.53
2018-05-18T09:57:02.027Z,11.90
2018-05-18T09:59:28.695Z,11.03
2018-05-18T10:01:55.371Z,11.67
2018-05-18T10:04:22.024Z,11.40
2018-05-18T10:06:48.674Z,11.07
2018-05-18T10:09:15.362Z,10.67
2018-05-18T10:11:41.990Z,13.50
2018-05-18T10:14:08.664Z,11.83
2018-05-18T10:16:35.341Z,12.87
2018-05-18T10:19:01.994Z,13.43
2018-05-18T10:21:28.720Z,11.93
2018-05-18T10:23:55.509Z,10.73
2018-05-18T10:26:22.189Z,12.23
2018-05-18T10:28:48.845Z,9.73
2018-05-18T10:31:15.545Z,10.87
2018-05-18T10:33:42.182Z,9.57
2018-05-18T10:36:08.837Z,10.80
2018-05-18T10:38:35.548Z,11.33
2018-05-18T10:41:02.311Z,10.50
2018-05-18T10:43:29.065Z,13.23
2018-05-18T10:45:55.732Z,12.40
2018-05-18T10:48:22.408Z,11.93
2018-05-18T10:50:49.880Z,14.03
2018-05-18T10:53:16.721Z,11.90
2018-05-18T10:55:43.413Z,14.43
2018-05-18T10:58:10.164Z,13.67
2018-05-18T11:00:36.841Z,12.53
2018-05-18T11:03:03.581Z,13.50
2018-05-18T11:05:30.326Z,11.50
2018-05-18T11:07:57.015Z,12.83
2018-05-18T11:10:23.729Z,12.87
2018-05-18T11:15:24.081Z,11.87
2018-05-18T11:17:50.776Z,11.80
2018-05-18T11:20:17.480Z,15.50
2018-05-18T11:22:45.842Z,15.73
2018-05-18T11:25:17.261Z,14.10
2018-05-18T11:27:44.522Z,14.60
2018-05-18T11:30:11.221Z,13.10
2018-05-18T11:32:44.056Z,14.40
2018-05-18T11:35:10.860Z,12.90
2018-05-18T11:37:37.641Z,11.93
2018-05-18T11:40:04.554Z,14.70
2018-05-18T11:42:31.199Z,13.60
2018-05-18T11:44:57.922Z,16.40
2018-05-18T11:47:25.497Z,14.67
2018-05-18T11:49:59.902Z,15.83
2018-05-18T11:52:30.017Z,13.90
2018-05-18T11:54:58.795Z,15.07
2018-05-18T12:00:01.558Z,13.27
2018-05-18T12:02:28.236Z,13.00
2018-05-18T12:07:40.930Z,14.70
2018-05-18T12:10:07.691Z,13.30
2018-05-18T12:12:34.386Z,12.50
2018-05-18T12:15:05.611Z,14.90
2018-05-18T12:17:34.272Z,13.93
2018-05-18T12:22:46.469Z,14.67
2018-05-18T12:25:13.370Z,13.80
2018-05-18T12:27:43.859Z,13.10
2018-05-18T12:30:10.546Z,15.37
2018-05-18T12:32:41.629Z,14.30
2018-05-18T12:35:08.296Z,13.93
2018-05-18T12:37:35.003Z,13.57
2018-05-18T12:40:07.252Z,12.60
2018-05-18T12:42:33.895Z,12.43
2018-05-18T12:45:00.850Z,13.10
2018-05-18T12:47:28.059Z,14.27
2018-05-18T12:49:54.816Z,14.50
2018-05-18T12:52:21.471Z,12.43
2018-05-18T12:54:48.755Z,12.90
2018-05-18T12:57:15.455Z,12.13
2018-05-18T12:59:42.180Z,14.43
2018-05-18T13:02:08.883Z,13.90
2018-05-18T13:04:35.790Z,12.10
2018-05-18T13:07:02.505Z,12.60
2018-05-18T13:09:35.138Z,13.20
2018-05-18T13:12:04.379Z,14.20
2018-05-18T13:14:31.442Z,12.50
2018-05-18T13:16:58.232Z,12.57
2018-05-18T13:19:25.835Z,14.30
2018-05-18T13:21:53.462Z,13.67
2018-05-18T13:24:21.513Z,12.90
2018-05-18T13:29:24.736Z,12.00
2018-05-18T13:31:51.483Z,13.00
2018-05-18T13:34:18.167Z,11.20
2018-05-18T13:36:45.148Z,12.27
2018-05-18T13:44:22.057Z,11.50
2018-05-18T13:46:48.860Z,13.07
2018-05-18T13:49:16.182Z,10.90
2018-05-18T13:51:42.886Z,9.80
2018-05-18T13:54:10.882Z,10.30
2018-05-18T13:56:37.664Z,10.70
2018-05-18T13:59:04.367Z,12.47
2018-05-18T14:01:31.072Z,12.10
2018-05-18T14:03:57.789Z,12.90
2018-05-18T14:06:24.572Z,13.50
2018-05-18T14:08:51.289Z,14.60
2018-05-18T14:11:17.970Z,14.30
2018-05-18T14:13:45.500Z,15.60
2018-05-18T14:16:12.147Z,14.23
2018-05-18T14:18:38.834Z,12.70
2018-05-18T14:21:05.527Z,12.60
2018-05-18T14:23:32.602Z,13.60
2018-05-18T14:25:59.322Z,14.10
2018-05-18T14:28:26.002Z,14.37
2018-05-18T14:30:53.047Z,14.23
2018-05-18T14:33:19.753Z,12.77
2018-05-18T14:35:46.451Z,13.13
2018-05-18T14:38:13.391Z,11.53
2018-05-18T14:40:39.990Z,11.60
2018-05-18T14:43:06.759Z,13.13
2018-05-18T14:45:33.452Z,13.17
2018-05-18T14:48:00.284Z,14.43
2018-05-18T14:50:26.966Z,14.83
2018-05-18T14:52:53.648Z,12.07
2018-05-18T14:55:20.339Z,13.97
2018-05-18T14:57:47.003Z,12.40
2018-05-18T15:00:13.807Z,13.17
2018-05-18T15:02:40.479Z,13.70
2018-05-18T15:05:07.191Z,13.43
2018-05-18T15:07:33.860Z,12.33
2018-05-18T15:10:02.297Z,12.67
2018-05-18T15:12:29.073Z,12.57
2018-05-18T15:14:55.728Z,12.47
2018-05-18T15:17:22.388Z,12.90
2018-05-18T15:19:49.372Z,12.57
2018-05-18T15:22:16.036Z,12.23
2018-05-18T15:24:42.757Z,12.03
2018-05-18T15:27:09.437Z,13.47
2018-05-18T15:29:36.096Z,16.37
2018-05-18T15:32:02.796Z,15.90
2018-05-18T15:34:29.495Z,15.90
2018-05-18T15:36:56.156Z,17.67
2018-05-18T15:39:22.850Z,15.63
2018-05-18T15:41:49.499Z,16.50
2018-05-18T15:44:16.153Z,15.03
2018-05-18T15:46:42.844Z,16.60
2018-05-18T15:49:09.485Z,15.70
2018-05-18T15:51:36.147Z,16.77
2018-05-18T15:54:02.887Z,15.30
2018-05-18T15:56:29.541Z,15.00
2018-05-18T15:58:56.185Z,14.13
2018-05-18T16:01:22.869Z,12.00
2018-05-18T16:03:49.541Z,11.47
2018-05-18T16:06:16.214Z,13.70
2018-05-18T16:08:42.845Z,13.90
2018-05-18T16:11:09.519Z,14.00
2018-05-18T16:13:36.213Z,13.67
2018-05-18T16:16:02.950Z,11.50
2018-05-18T16:18:29.649Z,12.10
2018-05-18T16:20:56.431Z,13.20
2018-05-18T16:23:23.071Z,14.33
2018-05-18T16:25:49.755Z,14.10
2018-05-18T16:28:16.847Z,14.17
2018-05-18T16:30:43.496Z,11.90
2018-05-18T16:33:10.315Z,12.90
2018-05-18T16:35:37.128Z,11.60
2018-05-18T16:38:03.801Z,12.57
2018-05-18T16:40:30.497Z,11.27
2018-05-18T16:42:57.201Z,12.90
2018-05-18T16:45:24.036Z,12.50
2018-05-18T16:47:50.715Z,11.73
2018-05-18T16:50:17.409Z,12.67
2018-05-18T16:52:44.231Z,12.10
2018-05-18T16:55:11.223Z,11.23
2018-05-18T16:57:37.913Z,11.63
2018-05-18T17:00:04.732Z,11.80
2018-05-18T17:02:31.422Z,12.27
2018-05-18T17:04:58.199Z,10.70
2018-05-18T17:07:24.995Z,10.60
2018-05-18T17:09:51.680Z,9.93
2018-05-18T17:12:18.364Z,10.10
2018-05-18T17:17:16.027Z,9.20
2018-05-18T17:19:42.730Z,8.67
2018-05-18T17:22:09.473Z,10.20
2018-05-18T17:24:36.126Z,9.40
2018-05-18T17:27:02.879Z,9.27
2018-05-18T17:29:29.566Z,11.80
2018-05-18T17:31:56.275Z,12.17
2018-05-18T17:34:23.648Z,12.17
2018-05-18T17:36:50.349Z,12.17
2018-05-18T17:39:17.071Z,11.30
2018-05-18T17:41:44.071Z,12.50
2018-05-18T17:44:10.911Z,13.33
2018-05-18T17:46:37.655Z,12.27
2018-05-18T17:49:04.343Z,13.17
2018-05-18T17:51:31.171Z,13.33
2018-05-18T17:53:57.832Z,13.90
2018-05-18T17:56:24.515Z,13.67
2018-05-18T17:58:51.176Z,12.80
2018-05-18T18:01:18.019Z,12.87
2018-05-18T18:03:44.697Z,13.77
2018-05-18T18:06:11.613Z,14.87
2018-05-18T18:08:38.549Z,16.10
2018-05-18T18:11:05.493Z,16.10
2018-05-18T18:13:32.246Z,15.90
2018-05-18T18:15:58.905Z,15.50
2018-05-18T18:18:25.540Z,17.10
2018-05-18T18:20:52.664Z,15.90
2018-05-18T18:23:19.349Z,16.10
2018-05-18T18:25:46.075Z,18.67
2018-05-18T18:28:12.763Z,16.17
2018-05-18T18:30:39.519Z,16.03
2018-05-18T18:33:06.332Z,17.27
2018-05-18T18:35:33.085Z,18.07
2018-05-18T18:37:59.793Z,16.60
2018-05-18T18:40:26.443Z,16.97
2018-05-18T18:42:53.151Z,16.83
2018-05-18T18:45:20.550Z,17.80
2018-05-18T18:47:47.284Z,17.43
2018-05-18T18:50:14.017Z,18.27
2018-05-18T18:52:40.724Z,17.60
2018-05-18T18:55:07.387Z,18.37
2018-05-18T18:57:34.119Z,19.33
2018-05-18T19:00:00.865Z,18.80
2018-05-18T19:02:27.574Z,20.77
2018-05-18T19:04:54.287Z,19.30
2018-05-18T19:07:21.726Z,17.80
2018-05-18T19:09:48.636Z,17.47
2018-05-18T19:12:15.401Z,16.80
2018-05-18T19:14:42.054Z,16.87
2018-05-18T19:17:08.831Z,16.13
2018-05-18T19:19:35.518Z,17.13
2018-05-18T19:22:02.204Z,16.80
2018-05-18T19:24:28.903Z,16.80
2018-05-18T19:26:55.571Z,16.77
2018-05-18T19:29:22.338Z,17.70
2018-05-18T19:31:49.140Z,16.43
2018-05-18T19:34:15.846Z,15.50
2018-05-18T19:36:42.581Z,15.67
2018-05-18T19:39:09.258Z,15.53
2018-05-18T19:41:36.037Z,15.83
2018-05-18T19:44:02.767Z,15.70
2018-05-18T19:49:03.635Z,14.37
2018-05-18T19:51:30.749Z,15.03
2018-05-18T19:53:57.389Z,13.67
2018-05-18T19:56:24.079Z,14.20
2018-05-18T19:58:50.852Z,13.77
2018-05-18T20:01:17.558Z,13.67
2018-05-18T20:03:44.372Z,13.23
2018-05-18T20:06:11.068Z,13.10
2018-05-18T20:08:37.760Z,12.87
2018-05-18T20:11:04.500Z,13.20
2018-05-18T20:13:31.199Z,13.50
2018-05-18T20:16:01.198Z,12.33
2018-05-18T20:18:29.085Z,12.67
2018-05-18T20:20:55.852Z,11.90
2018-05-18T20:23:22.488Z,11.20
2018-05-18T20:25:49.578Z,12.63
2018-05-18T20:28:16.403Z,12.97
2018-05-18T20:30:43.346Z,12.93
2018-05-18T20:33:10.021Z,12.90
2018-05-18T20:35:36.688Z,13.47
2018-05-18T20:38:03.525Z,11.83
2018-05-18T20:40:30.179Z,13.03
2018-05-18T20:42:56.883Z,12.00
2018-05-18T20:45:24.826Z,12.13
2018-05-18T20:47:53.509Z,11.83
2018-05-18T20:50:20.416Z,11.43
2018-05-18T20:52:47.225Z,11.57
2018-05-18T20:55:14.248Z,12.40
2018-05-18T20:57:42.705Z,11.27
2018-05-18T21:00:12.562Z,13.10
2018-05-18T21:02:39.337Z,11.50
2018-05-18T21:05:05.995Z,11.80
2018-05-18T21:07:33.480Z,12.30
2018-05-18T21:10:00.149Z,11.70
2018-05-18T21:12:26.812Z,11.43
2018-05-18T21:14:53.462Z,12.30
2018-05-18T21:17:20.143Z,12.60
2018-05-18T21:19:46.877Z,11.53
2018-05-18T21:22:13.543Z,11.90
2018-05-18T21:24:40.567Z,11.40
2018-05-18T21:27:07.366Z,11.30
2018-05-18T21:29:34.987Z,11.70
2018-05-18T21:32:01.622Z,11.83
2018-05-18T21:34:28.334Z,11.67
2018-05-18T21:36:55.010Z,12.53
2018-05-18T21:39:21.676Z,10.70
2018-05-18T21:41:48.518Z,11.20
2018-05-18T21:44:15.219Z,11.87
2018-05-18T21:46:42.369Z,12.10
2018-05-18T21:49:09.144Z,10.70
2018-05-18T21:51:35.858Z,11.63
2018-05-18T21:54:02.553Z,12.33
2018-05-18T21:56:29.401Z,11.50
2018-05-18T21:58:56.080Z,11.37
2018-05-18T22:01:22.849Z,12.73
2018-05-18T22:03:49.686Z,11.30
2018-05-18T22:06:16.341Z,11.30
2018-05-18T22:08:43.028Z,10.97
2018-05-18T22:11:09.705Z,12.07
2018-05-18T22:13:36.460Z,11.30
2018-05-18T22:16:03.169Z,11.30
2018-05-18T22:18:29.870Z,12.50
2018-05-18T22:20:56.774Z,11.63
2018-05-18T22:23:23.454Z,12.10
2018-05-18T22:25:50.139Z,11.33
2018-05-18T22:28:16.822Z,10.80
2018-05-18T22:30:43.621Z,12.10
2018-05-18T22:33:10.282Z,11.03
2018-05-18T22:35:36.988Z,11.87
2018-05-18T22:38:03.661Z,12.90
2018-05-18T22:40:30.305Z,12.10
2018-05-18T22:42:56.944Z,11.10
2018-05-18T22:45:23.714Z,12.30
2018-05-18T22:47:50.438Z,12.50
2018-05-18T22:50:17.105Z,12.77
2018-05-18T22:52:43.907Z,12.33
2018-05-18T22:55:10.595Z,12.57
2018-05-18T22:57:37.319Z,12.00
2018-05-18T23:00:04.029Z,12.33
2018-05-18T23:02:30.756Z,12.33
2018-05-18T23:04:57.420Z,11.80
2018-05-18T23:07:24.064Z,11.50
2018-05-18T23:09:50.756Z,12.43
2018-05-18T23:12:17.441Z,11.90
2018-05-18T23:14:44.285Z,11.97
2018-05-18T23:17:10.984Z,13.03
2018-05-18T23:19:37.696Z,13.10
2018-05-18T23:22:04.350Z,12.40
2018-05-18T23:24:31.013Z,13.93
2018-05-18T23:26:57.715Z,12.80
2018-05-18T23:29:24.400Z,12.93
2018-05-18T23:31:51.217Z,13.00
2018-05-18T23:34:17.829Z,13.83
2018-05-18T23:36:45.349Z,12.83
2018-05-18T23:39:12.000Z,13.70
2018-05-18T23:41:38.660Z,13.40
2018-05-18T23:44:05.340Z,13.40
2018-05-18T23:46:32.079Z,13.03
2018-05-18T23:48:58.718Z,13.30
2018-05-18T23:51:25.447Z,13.70
2018-05-18T23:53:52.172Z,13.53
2018-05-18T23:56:18.837Z,13.37
2018-05-18T23:58:45.616Z,12.93
